»·PEaware :: WAT380 KRNO-KOAK

WAT380 :: KRNO-KOAK

FLIGHT INFORMATION

Flight Status: Arrived
Operator:
Walker Air Transport
More flights by this operator :: More flights under this callsign
Pilot: Spencer M. (27733)
Aircraft: BOEING 727-200
(B722)
More flights by this aircraft type
Origin: KRNO Reno/Tahoe Intl
United States
Destination: KOAK Metro Oakland Intl
United States
More flights between these airports :: More routes between these airports
Route: RENO9 FMG MOD CEDES
File this flight plan on PilotEdge
Remarks:
Altitude:
(Current/Filed)
18,000ft
Speed:
(Current/Filed)
450kts
Departed: 15-Dec-21 10:31 PM
Arrived: 15-Dec-21 11:17 PM
Distance/Time
Traveled:
157nm/0:46
Distance/Time
To Go:
Arrived

Flight Plot

Page will automatically refresh every two minutes.

Flight plan parsing failed; only flown route is shown


Map Options




Map Legend


Flown Route
Filed Route
Departure Airport
Arrival Airport
Navaid (VOR, NDB)
Fix

Horizontal Profiles

Position Reports

Time Latitude Longitude Heading Altitude Ground
Speed
15-Dec-21 22:16 39.509590 -119.774247 330 4420ft 0kts
15-Dec-21 22:17 39.509590 -119.774247 330 4420ft 0kts
15-Dec-21 22:18 39.509590 -119.774247 330 4420ft 0kts
15-Dec-21 22:19 39.509590 -119.774247 330 4420ft 0kts
15-Dec-21 22:20 39.509590 -119.774247 330 4420ft 0kts
15-Dec-21 22:21 39.509590 -119.774247 330 4420ft 0kts
15-Dec-21 22:22 39.509590 -119.774247 330 4420ft 0kts
15-Dec-21 22:23 39.509590 -119.774247 330 4420ft 0kts
15-Dec-21 22:24 39.509138 -119.774336 63 4420ft 2kts
15-Dec-21 22:25 39.509104 -119.774560 88 4420ft 0kts
15-Dec-21 22:26 39.509104 -119.774560 88 4420ft 0kts
15-Dec-21 22:27 39.509078 -119.773237 93 4419ft 7kts
15-Dec-21 22:28 39.510593 -119.771462 1 4419ft 10kts
15-Dec-21 22:29 39.513817 -119.771150 77 4423ft 12kts
15-Dec-21 22:30 39.511456 -119.769226 179 4420ft 46kts
15-Dec-21 22:31 39.472537 -119.769603 180 5329ft 189kts
15-Dec-21 22:32 39.412521 -119.768512 180 8157ft 240kts
15-Dec-21 22:33 39.346305 -119.765307 183 12175ft 245kts
15-Dec-21 22:34 39.275438 -119.755745 204 14965ft 256kts
15-Dec-21 22:35 39.207557 -119.787558 214 17963ft 264kts
15-Dec-21 22:36 39.138451 -119.837272 223 18910ft 319kts
15-Dec-21 22:37 39.064159 -119.916943 229 19350ft 362kts
15-Dec-21 22:38 38.987399 -120.009535 228 19925ft 408kts
15-Dec-21 22:39 38.892249 -120.106826 220 19924ft 466kts
15-Dec-21 22:40 38.772162 -120.187807 209 19906ft 494kts
15-Dec-21 22:41 38.642275 -120.245008 205 19898ft 496kts
15-Dec-21 22:42 38.513417 -120.303662 210 19898ft 486kts
15-Dec-21 22:43 38.396648 -120.383958 220 19898ft 473kts
15-Dec-21 22:44 38.291175 -120.481301 224 20074ft 463kts
15-Dec-21 22:45 38.185521 -120.574817 219 20167ft 467kts
15-Dec-21 22:46 38.084974 -120.641735 214 19206ft 336kts
15-Dec-21 22:47 38.004589 -120.690599 216 16627ft 313kts
15-Dec-21 22:48 37.926299 -120.747764 217 14247ft 321kts
15-Dec-21 22:49 37.850869 -120.802343 214 11574ft 309kts
15-Dec-21 22:50 37.777707 -120.853650 211 10097ft 287kts
15-Dec-21 22:51 37.705760 -120.901350 210 10108ft 310kts
15-Dec-21 22:52 37.636105 -120.966826 230 10100ft 315kts
15-Dec-21 22:53 37.615048 -121.067928 265 10051ft 291kts
15-Dec-21 22:54 37.603672 -121.168090 258 10014ft 291kts
15-Dec-21 22:55 37.590651 -121.269872 261 9999ft 297kts
15-Dec-21 22:56 37.579187 -121.375511 261 10000ft 304kts
15-Dec-21 22:57 37.567647 -121.481415 261 10002ft 305kts
15-Dec-21 22:58 37.557183 -121.575417 261 9649ft 243kts
15-Dec-21 22:59 37.559202 -121.657237 286 8086ft 237kts
15-Dec-21 23:00 37.598035 -121.722494 302 7882ft 241kts
15-Dec-21 23:01 37.642694 -121.787747 303 6322ft 243kts
15-Dec-21 23:02 37.685486 -121.848577 303 5991ft 225kts
15-Dec-21 23:03 37.720327 -121.914973 293 5131ft 231kts
15-Dec-21 23:04 37.752925 -121.982460 293 4995ft 225kts
15-Dec-21 23:05 37.787028 -122.053596 293 5003ft 243kts
15-Dec-21 23:06 37.821701 -122.125937 293 4766ft 234kts
15-Dec-21 23:07 37.855768 -122.196235 293 3998ft 221kts
15-Dec-21 23:08 37.887942 -122.260735 293 3999ft 214kts
15-Dec-21 23:09 37.884270 -122.321622 233 3228ft 180kts
15-Dec-21 23:10 37.857012 -122.367126 213 2626ft 157kts
15-Dec-21 23:11 37.819669 -122.370228 162 1997ft 138kts
15-Dec-21 23:12 37.789068 -122.342273 143 1935ft 145kts
15-Dec-21 23:13 37.761231 -122.305383 135 1171ft 124kts
15-Dec-21 23:14 37.740798 -122.273521 134 629ft 116kts
15-Dec-21 23:15 37.721219 -122.243789 135 80ft 107kts
15-Dec-21 23:17 37.711044 -122.228561 130 18ft 16kts
15-Dec-21 23:18 37.706346 -122.220505 104 18ft 27kts
15-Dec-21 23:19 37.708514 -122.216216 2 19ft 15kts
15-Dec-21 23:20 37.709866 -122.216210 0 19ft 0kts

Navigation Log

Ident Type
Flight plan parsing failed, navigation log unavailable